Fir Grove, Oregon
Current Conditions -  °F | °C
As of 11:54 AM on Sunday 21 Dec 2014 (Local Time) from KEUG Reporting Station
Light Rain Light Rain  
Wind Chill: 55°   Ceiling: 700
Heat Index: 55°   Visibility: 1mi
Dew Point: 53°   Wind: 5mph
Humidity: 93%   Direction: 10°N
Pressure: 30.14"   Gusts: NA
Location:  44.0685°N, 123.082°W
Report Text: KEUG 211954Z 01004KT 1SM R16R/5000VP6000FT -RA BR BKN007 BKN012 OVC020 13/12 A3014 RMK AO2 RAE05B21 SLP208 P0003 T01280117 $
Loading
Personal Weather Stations






























Interactive Weather Map New forecast layout! Learn more

10-Day Weather Forecast

Advertisements
Track Severe Weather on mobile